Time;durP1;ratioP1;P1;durP2;ratioP2;P2;SDS_P1;SDS_P2;PMS_P1;PMS_P2;Temp;Humidity;BMP_temperature;BMP_pressure;BME280_temperature;BME280_humidity;BME280_pressure;Samples;Min_cycle;Max_cycle;Signal;HPM_P1;HPM_P2
2022/09/08 00:00:25;;;;;;;5.32;4.75;;;20.40;99.90;;;;;;5115027;28;20218;-91
2022/09/08 00:02:55;;;;;;;5.18;4.72;;;20.40;99.90;;;;;;5114974;28;20232;-91
2022/09/08 00:05:26;;;;;;;6.47;4.63;;;20.30;99.90;;;;;;5114991;28;20207;-90
2022/09/08 00:07:58;;;;;;;4.35;3.95;;;20.40;99.90;;;;;;5114862;28;20214;-91
2022/09/08 00:10:26;;;;;;;5.38;4.60;;;20.30;99.90;;;;;;5114747;28;20241;-90
2022/09/08 00:12:55;;;;;;;7.82;5.97;;;20.30;99.90;;;;;;5115446;28;20230;-91
2022/09/08 00:15:25;;;;;;;5.15;4.75;;;20.30;99.90;;;;;;5114697;28;20214;-91
2022/09/08 00:17:53;;;;;;;6.15;4.93;;;20.20;99.90;;;;;;5114840;28;20207;-90
2022/09/08 00:20:21;;;;;;;5.53;5.05;;;20.20;99.90;;;;;;5114469;28;20200;-91
2022/09/08 00:22:50;;;;;;;4.50;4.15;;;20.20;99.90;;;;;;5114148;28;20287;-91
2022/09/08 00:25:18;;;;;;;5.57;4.75;;;20.20;99.90;;;;;;5114540;28;20203;-91
2022/09/08 00:27:46;;;;;;;5.47;4.97;;;20.20;99.90;;;;;;5114495;28;20210;-91
2022/09/08 00:30:14;;;;;;;6.28;5.72;;;20.10;99.90;;;;;;5114241;28;20214;-91
2022/09/08 00:32:44;;;;;;;5.38;4.90;;;20.10;99.90;;;;;;5114243;28;20231;-91
2022/09/08 00:35:14;;;;;;;5.30;4.90;;;20.10;99.90;;;;;;5114730;28;20403;-91
2022/09/08 00:37:52;;;;;;;5.47;4.88;;;20.10;99.90;;;;;;5113897;28;20231;-91
2022/09/08 00:40:22;;;;;;;5.13;4.72;;;20.00;99.90;;;;;;5114313;28;20207;-91
2022/09/08 00:42:59;;;;;;;4.85;4.28;;;20.00;99.90;;;;;;5114091;28;20223;-91
2022/09/08 00:45:33;;;;;;;5.63;4.93;;;20.00;99.90;;;;;;5114361;28;20221;-91
2022/09/08 00:48:06;;;;;;;5.18;4.68;;;20.00;99.90;;;;;;5114466;28;20204;-90
2022/09/08 00:50:34;;;;;;;4.40;4.10;;;20.00;99.90;;;;;;5114037;28;20204;-89
2022/09/08 00:53:09;;;;;;;5.85;5.35;;;20.00;99.90;;;;;;5114131;28;20239;-90
2022/09/08 00:55:40;;;;;;;5.78;5.25;;;20.00;99.90;;;;;;5113945;28;20234;-92
2022/09/08 00:58:09;;;;;;;7.80;5.20;;;19.90;99.90;;;;;;5113427;28;20219;-91
2022/09/08 01:00:39;;;;;;;6.65;5.05;;;19.90;99.90;;;;;;5113964;28;20209;-91
2022/09/08 01:03:10;;;;;;;6.32;5.35;;;19.90;99.90;;;;;;5113109;28;20227;-91
2022/09/08 01:05:49;;;;;;;5.80;5.30;;;19.80;99.90;;;;;;5113757;28;20218;-91
2022/09/08 01:17:18;;;;;;;6.20;5.70;;;19.80;99.90;;;;;;5113757;28;20227;-90
2022/09/08 01:19:51;;;;;;;7.15;5.85;;;19.70;99.90;;;;;;5116332;28;20223;-91
2022/09/08 01:22:45;;;;;;;5.75;5.25;;;19.70;99.90;;;;;;5115840;28;20232;-91
2022/09/08 01:25:27;;;;;;;6.80;6.20;;;19.70;99.90;;;;;;5114639;28;20210;-90
2022/09/08 01:28:15;;;;;;;10.75;6.25;;;19.70;99.90;;;;;;5113724;28;20255;-90
2022/09/08 01:30:54;;;;;;;6.20;5.70;;;19.60;99.90;;;;;;5113353;28;20210;-90
2022/09/08 01:33:22;;;;;;;6.70;6.07;;;19.70;99.90;;;;;;5113452;28;20207;-90
2022/09/08 01:35:52;;;;;;;6.25;5.75;;;19.60;99.90;;;;;;5113571;28;20214;-91
2022/09/08 01:38:20;;;;;;;5.75;5.25;;;19.60;99.90;;;;;;5112878;28;20235;-91
2022/09/08 01:40:48;;;;;;;8.45;7.45;;;19.60;99.90;;;;;;5113268;28;20208;-92
2022/09/08 01:43:18;;;;;;;6.43;5.82;;;19.60;99.90;;;;;;5113283;28;20208;-90
2022/09/08 01:45:46;;;;;;;6.45;5.95;;;19.60;99.90;;;;;;5112988;28;20214;-90
2022/09/08 01:48:15;;;;;;;5.97;5.45;;;19.60;99.90;;;;;;5113187;28;20211;-90
2022/09/08 01:50:44;;;;;;;5.40;4.93;;;19.60;99.90;;;;;;5113358;28;20256;-91
2022/09/08 01:53:12;;;;;;;5.25;4.80;;;19.60;99.90;;;;;;5113084;28;20302;-91
2022/09/08 01:55:40;;;;;;;6.43;5.80;;;19.50;99.90;;;;;;5113047;28;20199;-90
2022/09/08 01:58:09;;;;;;;5.45;4.95;;;19.50;99.90;;;;;;5112739;28;20227;-91
2022/09/08 02:00:41;;;;;;;8.75;6.05;;;19.50;99.90;;;;;;5113080;28;20199;-91
2022/09/08 02:03:10;;;;;;;6.13;5.63;;;19.50;99.90;;;;;;5113058;28;20223;-91
2022/09/08 02:05:39;;;;;;;6.10;5.68;;;19.50;99.90;;;;;;5112938;28;20290;-91
2022/09/08 02:08:08;;;;;;;7.47;5.13;;;19.50;99.90;;;;;;5112913;28;20195;-90
2022/09/08 02:14:40;;;;;;;6.20;5.70;;;19.50;99.90;;;;;;5031026;28;20273;-91
2022/09/08 02:21:59;;;;;;;6.55;6.05;;;19.40;99.90;;;;;;4897589;29;20202;-90
2022/09/08 02:25:48;;;;;;;6.45;5.90;;;19.40;99.90;;;;;;4879808;29;20208;-90
2022/09/08 02:40:16;;;;;;;6.38;5.78;;;19.30;99.90;;;;;;4778662;29;20205;-90
2022/09/08 02:47:18;;;;;;;6.72;5.93;;;19.30;99.90;;;;;;4816805;29;20217;-89
2022/09/08 02:50:39;;;;;;;6.93;6.30;;;19.20;99.90;;;;;;4917253;29;20214;-90
2022/09/08 02:57:26;;;;;;;7.43;6.72;;;19.20;99.90;;;;;;4936473;29;20209;-90
2022/09/08 03:06:48;;;;;;;6.95;6.25;;;19.20;99.90;;;;;;4996894;28;20202;-92
2022/09/08 03:09:17;;;;;;;7.43;6.82;;;19.20;99.90;;;;;;5053294;28;20214;-90
2022/09/08 03:11:48;;;;;;;7.72;7.13;;;19.20;99.90;;;;;;5053426;28;20324;-90
2022/09/08 03:14:16;;;;;;;7.80;7.00;;;19.20;99.90;;;;;;5053299;28;20265;-90
2022/09/08 03:16:46;;;;;;;6.72;6.18;;;19.20;99.90;;;;;;5053298;28;20209;-91
2022/09/08 03:19:15;;;;;;;8.50;7.68;;;19.20;99.90;;;;;;5053180;28;20198;-91
2022/09/08 03:21:44;;;;;;;7.18;6.65;;;19.20;99.90;;;;;;5053038;28;20226;-89
2022/09/08 03:24:13;;;;;;;8.32;7.53;;;19.20;99.90;;;;;;5053406;28;20205;-89
2022/09/08 03:26:42;;;;;;;8.90;8.02;;;19.10;99.90;;;;;;5053440;28;20214;-89
2022/09/08 03:29:12;;;;;;;8.77;7.97;;;19.10;99.90;;;;;;5053193;28;20202;-88
2022/09/08 03:31:40;;;;;;;9.35;8.15;;;19.10;99.90;;;;;;5054066;28;20222;-90
2022/09/08 03:34:09;;;;;;;9.20;8.40;;;19.10;99.90;;;;;;5065187;28;20214;-90
2022/09/08 03:36:39;;;;;;;9.23;8.45;;;19.10;99.90;;;;;;5115395;28;20215;-89
2022/09/08 03:39:07;;;;;;;9.15;8.32;;;19.10;99.90;;;;;;5114795;28;20234;-91
2022/09/08 03:41:35;;;;;;;9.68;8.77;;;19.10;99.90;;;;;;5115128;28;20225;-90
2022/09/08 03:44:04;;;;;;;11.52;10.30;;;19.00;99.90;;;;;;5115452;28;20193;-91
2022/09/08 03:46:33;;;;;;;10.40;8.40;;;19.00;99.90;;;;;;5115229;28;20234;-91
2022/09/08 03:49:03;;;;;;;10.77;9.88;;;19.00;99.90;;;;;;5114951;28;20196;-91
2022/09/08 03:51:32;;;;;;;11.90;10.20;;;19.00;99.90;;;;;;5115157;28;20230;-91
2022/09/08 03:56:44;;;;;;;12.07;10.95;;;19.00;99.90;;;;;;5115148;28;20210;-91
2022/09/08 03:59:13;;;;;;;11.82;10.80;;;18.90;99.90;;;;;;5114850;28;20220;-90
2022/09/08 04:01:41;;;;;;;10.57;9.77;;;18.90;99.90;;;;;;5114683;28;20224;-91
2022/09/08 04:04:09;;;;;;;11.18;10.25;;;18.90;99.90;;;;;;5114826;28;20208;-91
2022/09/08 04:06:39;;;;;;;10.88;9.90;;;18.90;99.90;;;;;;5114944;28;20297;-91
2022/09/08 04:09:10;;;;;;;12.70;11.40;;;18.90;99.90;;;;;;5114842;28;20295;-90
2022/09/08 04:11:38;;;;;;;11.55;10.45;;;18.90;99.90;;;;;;5115040;28;20227;-91
2022/09/08 04:14:07;;;;;;;11.43;10.43;;;18.90;99.90;;;;;;5114746;28;20417;-90
2022/09/08 04:16:35;;;;;;;10.90;9.88;;;18.90;99.90;;;;;;5114478;28;20200;-91
2022/09/08 04:19:04;;;;;;;11.80;10.52;;;18.90;99.90;;;;;;5114445;28;20262;-91
2022/09/08 04:21:32;;;;;;;11.48;10.43;;;18.90;99.90;;;;;;5114815;28;20228;-91
2022/09/08 04:24:01;;;;;;;12.18;11.07;;;18.80;99.90;;;;;;5114526;28;20204;-90
2022/09/08 04:26:31;;;;;;;11.23;10.30;;;18.80;99.90;;;;;;5114673;28;20200;-91
2022/09/08 04:28:59;;;;;;;11.32;10.40;;;18.80;99.90;;;;;;5114297;28;20196;-91
2022/09/08 04:31:27;;;;;;;10.77;9.88;;;18.80;99.90;;;;;;5115492;28;20238;-90
2022/09/08 04:33:56;;;;;;;11.30;10.32;;;18.80;99.90;;;;;;5116010;28;20272;-91
2022/09/08 04:36:25;;;;;;;11.20;10.20;;;18.80;99.90;;;;;;5115801;28;20207;-91
2022/09/08 04:38:56;;;;;;;11.07;10.02;;;18.80;99.90;;;;;;5114841;28;20247;-90
2022/09/08 04:41:25;;;;;;;13.43;11.60;;;18.80;99.90;;;;;;5114289;28;20222;-91
2022/09/08 04:43:56;;;;;;;12.27;11.07;;;18.80;99.90;;;;;;5114975;28;20212;-91
2022/09/08 04:46:24;;;;;;;14.73;10.63;;;18.80;99.90;;;;;;5114910;28;20191;-91
2022/09/08 04:48:54;;;;;;;14.35;9.63;;;18.90;99.90;;;;;;5113790;28;20211;-90
2022/09/08 04:51:22;;;;;;;11.77;10.57;;;18.90;99.90;;;;;;5114488;28;20246;-91
2022/09/08 04:53:53;;;;;;;11.35;10.30;;;18.90;99.90;;;;;;5114096;28;20289;-91
2022/09/08 04:56:22;;;;;;;11.32;10.07;;;18.90;99.90;;;;;;5114227;28;20208;-90
2022/09/08 04:58:51;;;;;;;11.88;10.88;;;18.90;99.90;;;;;;5113555;28;20231;-90
2022/09/08 05:01:26;;;;;;;10.98;10.00;;;18.90;99.90;;;;;;5114071;28;20255;-90
2022/09/08 05:03:56;;;;;;;12.38;10.57;;;18.90;99.90;;;;;;5113734;28;20204;-91
2022/09/08 05:06:25;;;;;;;11.95;10.63;;;19.00;99.90;;;;;;5114187;28;20285;-90
2022/09/08 05:08:55;;;;;;;11.00;10.05;;;19.00;99.90;;;;;;5113464;28;20199;-91
2022/09/08 05:11:25;;;;;;;11.25;10.07;;;19.00;99.90;;;;;;5114115;28;20220;-91
2022/09/08 05:13:54;;;;;;;10.65;9.75;;;19.00;99.90;;;;;;5113670;28;20203;-91
2022/09/08 05:16:26;;;;;;;9.05;8.35;;;19.10;99.90;;;;;;5113431;28;20203;-91
2022/09/08 05:18:56;;;;;;;12.00;10.25;;;19.10;99.90;;;;;;5113740;28;20219;-90
2022/09/08 05:21:25;;;;;;;10.95;9.80;;;19.20;99.90;;;;;;5113775;28;20223;-90
2022/09/08 05:23:55;;;;;;;10.18;9.18;;;19.20;99.90;;;;;;5113664;28;20204;-90
2022/09/08 05:26:24;;;;;;;11.43;10.32;;;19.20;99.90;;;;;;5113595;28;20225;-90
2022/09/08 05:28:53;;;;;;;11.00;9.93;;;19.20;99.90;;;;;;5113063;28;20200;-90
2022/09/08 05:31:25;;;;;;;10.85;9.73;;;19.20;99.90;;;;;;5113445;28;20224;-91
2022/09/08 05:33:54;;;;;;;9.95;9.05;;;19.30;99.90;;;;;;5113575;28;20211;-90
2022/09/08 05:36:24;;;;;;;9.25;8.52;;;19.30;99.90;;;;;;5113543;28;20210;-90
2022/09/08 05:38:54;;;;;;;11.20;10.07;;;19.40;99.90;;;;;;5113192;28;20212;-92
2022/09/08 05:41:23;;;;;;;11.35;10.27;;;19.40;99.90;;;;;;5112976;28;20243;-91
2022/09/08 05:43:58;;;;;;;10.75;9.73;;;19.40;99.90;;;;;;5113380;28;20225;-91
2022/09/08 05:46:29;;;;;;;10.27;9.13;;;19.50;99.90;;;;;;5114075;28;20201;-90
2022/09/08 05:48:59;;;;;;;10.82;9.93;;;19.50;99.90;;;;;;5112882;28;20250;-91
2022/09/08 05:51:28;;;;;;;10.23;8.95;;;19.60;99.90;;;;;;5113223;28;20230;-91
2022/09/08 05:53:59;;;;;;;10.43;9.43;;;19.60;99.90;;;;;;5115186;28;20206;-91
2022/09/08 05:56:28;;;;;;;9.63;8.73;;;19.60;99.90;;;;;;5114264;28;20286;-91
2022/09/08 05:58:58;;;;;;;8.13;7.43;;;19.60;99.90;;;;;;5112827;28;20235;-91
2022/09/08 06:01:30;;;;;;;9.35;8.45;;;19.60;99.90;;;;;;5113458;28;20253;-91
2022/09/08 06:03:59;;;;;;;13.40;8.98;;;19.70;99.90;;;;;;5113255;28;20203;-91
2022/09/08 06:06:28;;;;;;;10.15;8.48;;;19.70;99.90;;;;;;5112991;28;20204;-91
2022/09/08 06:08:59;;;;;;;11.63;9.85;;;19.60;99.90;;;;;;5113172;28;20207;-91
2022/09/08 06:11:28;;;;;;;9.60;8.73;;;19.60;99.90;;;;;;5112844;28;20246;-93
2022/09/08 06:13:57;;;;;;;9.15;7.97;;;19.60;99.90;;;;;;5113035;28;20237;-91
2022/09/08 06:16:26;;;;;;;8.93;8.15;;;19.60;99.90;;;;;;5112968;28;20203;-91
2022/09/08 06:18:58;;;;;;;9.07;8.15;;;19.60;99.90;;;;;;5112507;28;20226;-91
2022/09/08 06:21:29;;;;;;;9.93;8.98;;;19.70;99.90;;;;;;5113032;28;20224;-91
2022/09/08 06:24:00;;;;;;;9.48;8.57;;;19.70;99.90;;;;;;5113134;28;20218;-91
2022/09/08 06:26:59;;;;;;;9.63;7.75;;;19.70;99.90;;;;;;5113033;28;20199;-92
2022/09/08 06:29:59;;;;;;;7.78;7.18;;;19.70;99.90;;;;;;5112937;28;20207;-91
2022/09/08 06:32:30;;;;;;;8.80;8.05;;;19.80;99.90;;;;;;5113065;28;20220;-91
2022/09/08 06:35:06;;;;;;;9.20;8.13;;;19.90;99.90;;;;;;5113974;28;20219;-91
2022/09/08 06:37:42;;;;;;;8.65;7.85;;;20.00;99.90;;;;;;5112988;28;20260;-91
2022/09/08 06:40:16;;;;;;;8.30;7.47;;;20.00;99.90;;;;;;5112699;28;20219;-92
2022/09/08 06:42:50;;;;;;;8.80;7.45;;;20.10;99.90;;;;;;5112936;28;20227;-92
2022/09/08 06:45:24;;;;;;;7.63;6.28;;;20.30;99.90;;;;;;5112924;28;20213;-91
2022/09/08 06:48:10;;;;;;;6.97;6.28;;;20.40;99.90;;;;;;5112547;28;20218;-92
2022/09/08 06:50:46;;;;;;;6.60;6.00;;;20.50;99.90;;;;;;5112452;28;20208;-92
2022/09/08 06:53:20;;;;;;;6.65;6.05;;;20.60;99.90;;;;;;5112639;28;20200;-92
2022/09/08 06:55:58;;;;;;;6.30;5.65;;;20.70;99.90;;;;;;5112658;28;20263;-90
2022/09/08 06:58:46;;;;;;;5.60;5.10;;;20.80;99.90;;;;;;5112440;28;20207;-91
2022/09/08 07:01:22;;;;;;;6.03;5.53;;;20.90;99.90;;;;;;5114635;28;20228;-92
2022/09/08 07:04:05;;;;;;;4.45;4.07;;;21.00;99.90;;;;;;5116223;28;20239;-91
2022/09/08 07:06:42;;;;;;;5.20;4.75;;;21.10;99.90;;;;;;5116420;28;20211;-92
2022/09/08 07:09:49;;;;;;;6.03;5.43;;;21.10;99.90;;;;;;5115921;28;20214;-92
2022/09/08 07:12:32;;;;;;;5.35;4.95;;;21.10;99.90;;;;;;5096911;28;20219;-91
2022/09/08 07:15:32;;;;;;;5.93;5.43;;;21.00;99.90;;;;;;5115907;28;20214;-92
2022/09/08 07:18:08;;;;;;;6.15;4.55;;;21.00;99.90;;;;;;5116098;28;20214;-91
2022/09/08 07:20:36;;;;;;;6.80;5.63;;;21.10;99.90;;;;;;5115534;28;20227;-91
2022/09/08 07:23:10;;;;;;;4.82;4.00;;;21.20;99.90;;;;;;5116386;28;20223;-91
2022/09/08 07:25:43;;;;;;;4.65;4.25;;;21.30;99.90;;;;;;5115745;28;20203;-91
2022/09/08 07:28:16;;;;;;;6.00;4.28;;;21.30;99.90;;;;;;5115906;28;20210;-92
2022/09/08 07:30:47;;;;;;;5.10;4.60;;;21.40;99.90;;;;;;5115445;28;20198;-91
2022/09/08 07:33:25;;;;;;;5.03;4.63;;;21.50;99.90;;;;;;5115730;28;20227;-92
2022/09/08 07:36:02;;;;;;;7.53;4.82;;;21.60;99.90;;;;;;5115799;28;20215;-91
2022/09/08 07:38:39;;;;;;;4.50;4.13;;;21.70;99.90;;;;;;5115621;28;20202;-91
2022/09/08 07:41:10;;;;;;;5.07;4.40;;;21.80;99.90;;;;;;5115203;28;20295;-90
2022/09/08 07:43:38;;;;;;;5.43;4.93;;;21.90;99.90;;;;;;5115357;28;20204;-89
2022/09/08 07:46:30;;;;;;;4.32;4.03;;;22.00;99.90;;;;;;5115707;28;20204;-90
2022/09/08 07:49:06;;;;;;;5.75;4.50;;;22.00;99.90;;;;;;5106431;28;20210;-90
2022/09/08 07:51:40;;;;;;;5.03;4.53;;;22.00;99.90;;;;;;5115372;28;20219;-90
2022/09/08 07:54:26;;;;;;;4.60;4.15;;;22.00;99.90;;;;;;5115173;28;20214;-91
2022/09/08 07:57:00;;;;;;;4.47;4.07;;;21.90;99.90;;;;;;5114862;28;20200;-92
2022/09/08 07:59:57;;;;;;;4.47;4.07;;;22.00;99.90;;;;;;5114819;28;20219;-91
2022/09/08 08:02:48;;;;;;;4.78;4.38;;;22.10;99.90;;;;;;5115352;28;20230;-91
2022/09/08 08:05:22;;;;;;;4.78;3.60;;;22.10;99.90;;;;;;5115265;28;20203;-90
2022/09/08 08:07:58;;;;;;;3.83;3.53;;;22.30;99.90;;;;;;5115021;28;20207;-91
2022/09/08 08:10:35;;;;;;;4.55;4.15;;;22.50;99.90;;;;;;5114736;28;20210;-91
2022/09/08 08:13:11;;;;;;;4.18;3.88;;;22.80;99.90;;;;;;5114795;28;20227;-91
2022/09/08 08:15:46;;;;;;;4.28;3.97;;;23.00;99.90;;;;;;5115048;28;20218;-90
2022/09/08 08:18:25;;;;;;;4.32;3.92;;;23.30;99.90;;;;;;5114950;28;20203;-91
2022/09/08 08:20:59;;;;;;;4.05;3.53;;;23.50;99.90;;;;;;5114402;28;20227;-91
2022/09/08 08:24:01;;;;;;;4.05;3.70;;;24.00;99.90;;;;;;5114767;28;20218;-92
2022/09/08 08:26:36;;;;;;;3.50;3.17;;;24.40;99.90;;;;;;5114762;28;20207;-90
2022/09/08 08:29:39;;;;;;;3.33;3.05;;;24.80;99.90;;;;;;5114485;28;20210;-91
2022/09/08 08:32:12;;;;;;;3.38;3.08;;;25.20;99.90;;;;;;5114498;28;20316;-91
2022/09/08 08:35:13;;;;;;;3.38;3.08;;;25.90;99.90;;;;;;5114763;28;20207;-90
2022/09/08 08:37:45;;;;;;;21.02;3.20;;;26.40;99.90;;;;;;5116063;28;20214;-90
2022/09/08 08:40:37;;;;;;;3.03;2.72;;;27.00;99.90;;;;;;5117481;28;20249;-91
2022/09/08 08:43:42;;;;;;;3.42;2.63;;;27.70;99.90;;;;;;5117514;28;20234;-91
2022/09/08 08:46:39;;;;;;;3.08;2.75;;;28.40;99.90;;;;;;5116616;28;20199;-91
2022/09/08 08:49:36;;;;;;;3.20;2.88;;;28.70;99.90;;;;;;5086356;28;20203;-91
2022/09/08 08:52:24;;;;;;;3.13;2.92;;;28.50;99.90;;;;;;5077970;28;20231;-91
2022/09/08 08:55:36;;;;;;;3.35;2.78;;;28.70;99.90;;;;;;5115021;28;20199;-89
2022/09/08 08:58:25;;;;;;;3.83;3.30;;;29.40;99.90;;;;;;5101884;28;20214;-89
2022/09/08 09:01:20;;;;;;;9.10;2.50;;;30.00;99.90;;;;;;5114227;28;20215;-90
2022/09/08 09:04:04;;;;;;;4.20;3.17;;;30.50;99.90;;;;;;5113590;28;20246;-89
2022/09/08 09:06:44;;;;;;;2.90;2.70;;;31.20;99.90;;;;;;5116697;28;20293;-90
2022/09/08 09:09:32;;;;;;;2.78;2.58;;;31.30;99.90;;;;;;5116722;28;20207;-88
2022/09/08 09:12:14;;;;;;;3.85;3.15;;;31.50;99.90;;;;;;5117374;28;20313;-90
2022/09/08 09:15:17;;;;;;;3.20;3.00;;;31.80;99.70;;;;;;5114359;28;20210;-89
2022/09/08 09:18:33;;;;;;;4.60;3.30;;;32.40;99.90;;;;;;5113486;28;20203;-90
2022/09/08 09:21:05;;;;;;;4.35;2.97;;;32.50;98.40;;;;;;5109311;28;20203;-90
2022/09/08 09:23:43;;;;;;;18.08;3.10;;;32.50;97.00;;;;;;5113673;28;20199;-89
2022/09/08 09:26:18;;;;;;;4.40;3.08;;;32.50;96.80;;;;;;5113617;28;20202;-90
2022/09/08 09:28:56;;;;;;;3.88;3.33;;;32.40;96.70;;;;;;5113360;28;20206;-90
2022/09/08 09:32:04;;;;;;;3.22;2.92;;;32.30;97.30;;;;;;5113558;28;20246;-90
2022/09/08 09:34:59;;;;;;;4.22;3.83;;;32.70;96.20;;;;;;5113316;28;20207;-90
2022/09/08 09:38:10;;;;;;;3.83;3.40;;;33.80;96.00;;;;;;5113905;28;20207;-90
2022/09/08 09:40:51;;;;;;;7.63;4.93;;;34.80;93.10;;;;;;5113027;28;20206;-90
2022/09/08 09:43:34;;;;;;;3.28;2.97;;;35.40;93.60;;;;;;5113301;28;20223;-84
2022/09/08 09:46:28;;;;;;;3.20;2.92;;;36.00;91.50;;;;;;5113277;28;20210;-87
2022/09/08 09:49:22;;;;;;;7.20;5.32;;;36.50;90.00;;;;;;5113037;28;20214;-87
2022/09/08 09:52:15;;;;;;;3.20;2.90;;;37.10;85.40;;;;;;5113333;28;20272;-88
2022/09/08 09:55:01;;;;;;;2.85;2.65;;;37.10;82.20;;;;;;5094293;28;20206;-91
2022/09/08 09:57:58;;;;;;;3.47;3.17;;;36.60;80.20;;;;;;5093204;28;20227;-85
2022/09/08 10:00:29;;;;;;;3.20;2.90;;;36.10;82.70;;;;;;5093388;28;20203;-88
2022/09/08 10:03:34;;;;;;;3.90;3.15;;;35.70;80.30;;;;;;5093090;28;20239;-82
2022/09/08 10:06:37;;;;;;;2.63;2.40;;;35.70;81.50;;;;;;5092720;28;20195;-83
2022/09/08 10:09:57;;;;;;;3.97;3.58;;;35.20;82.90;;;;;;5093312;28;20244;-86
2022/09/08 10:13:06;;;;;;;2.58;2.40;;;34.50;82.20;;;;;;5093210;28;20309;-87
2022/09/08 10:16:04;;;;;;;3.60;3.15;;;34.00;84.40;;;;;;5084144;28;20206;-83
2022/09/08 10:19:11;;;;;;;3.28;2.97;;;33.60;86.60;;;;;;5110018;28;20225;-83
2022/09/08 10:22:26;;;;;;;3.05;2.85;;;33.40;84.80;;;;;;5113263;28;20237;-84
2022/09/08 10:25:18;;;;;;;3.08;2.88;;;33.20;85.30;;;;;;5108965;28;20203;-83
2022/09/08 10:28:20;;;;;;;3.13;2.92;;;33.20;84.50;;;;;;5113880;28;20224;-83
2022/09/08 10:31:23;;;;;;;4.05;3.65;;;32.60;86.30;;;;;;5071731;28;20192;-83
2022/09/08 10:34:24;;;;;;;7.43;3.65;;;32.50;87.20;;;;;;5110275;28;20185;-84
2022/09/08 10:37:03;;;;;;;3.65;3.15;;;32.60;88.40;;;;;;5096239;28;20196;-83
2022/09/08 10:40:04;;;;;;;3.30;3.00;;;32.50;88.70;;;;;;5098025;28;20196;-85
2022/09/08 10:42:48;;;;;;;3.20;3.00;;;32.30;89.20;;;;;;5100583;28;20291;-88
2022/09/08 10:45:49;;;;;;;5.65;4.00;;;31.00;91.00;;;;;;5095185;28;20204;-87
2022/09/08 10:48:54;;;;;;;4.68;4.20;;;30.90;92.20;;;;;;5080170;28;20199;-86
2022/09/08 10:51:45;;;;;;;3.63;3.33;;;31.00;92.10;;;;;;5096499;28;20224;-87
2022/09/08 10:54:49;;;;;;;4.47;3.53;;;30.80;92.50;;;;;;5106919;28;20203;-87
2022/09/08 10:57:35;;;;;;;5.10;4.70;;;30.90;92.50;;;;;;5116654;28;20214;-87
2022/09/08 11:00:08;;;;;;;4.05;3.75;;;31.10;92.90;;;;;;5116399;28;20202;-86
2022/09/08 11:02:41;;;;;;;4.45;4.05;;;30.70;93.30;;;;;;5116653;28;20227;-86
2022/09/08 11:05:45;;;;;;;4.55;4.15;;;30.50;93.40;;;;;;5116340;28;20227;-86
2022/09/08 11:08:50;;;;;;;4.80;4.40;;;30.50;93.40;;;;;;5033730;28;20197;-87
2022/09/08 11:11:52;;;;;;;4.50;4.10;;;29.70;94.00;;;;;;5096231;28;20224;-87
2022/09/08 11:14:47;;;;;;;5.70;3.40;;;29.20;94.90;;;;;;5096589;28;20214;-86
2022/09/08 11:17:22;;;;;;;9.00;4.05;;;28.80;95.70;;;;;;5095964;28;20212;-86
2022/09/08 11:19:56;;;;;;;4.10;3.70;;;28.60;95.80;;;;;;5098801;28;20214;-86
2022/09/08 11:22:50;;;;;;;7.60;3.65;;;28.50;95.80;;;;;;5116074;28;20211;-86
2022/09/08 11:25:43;;;;;;;4.57;3.78;;;28.50;96.00;;;;;;5116177;28;20212;-86
2022/09/08 11:28:22;;;;;;;4.00;3.70;;;28.30;96.20;;;;;;5109479;28;20212;-86
2022/09/08 11:31:00;;;;;;;6.28;4.05;;;27.80;96.60;;;;;;5116508;28;20199;-86
2022/09/08 11:33:59;;;;;;;5.22;4.18;;;27.50;97.40;;;;;;5116160;28;20235;-86
2022/09/08 11:36:54;;;;;;;4.03;3.72;;;27.30;98.00;;;;;;5115572;28;20289;-86
2022/09/08 11:39:39;;;;;;;4.70;4.28;;;27.00;98.70;;;;;;5071480;28;20206;-86
2022/09/08 11:42:37;;;;;;;7.78;4.32;;;26.60;99.50;;;;;;5116134;28;20223;-86
2022/09/08 11:45:17;;;;;;;5.78;3.92;;;26.40;99.90;;;;;;5115962;28;20204;-86
2022/09/08 11:48:11;;;;;;;4.38;3.97;;;26.20;99.90;;;;;;5115582;28;20191;-86
2022/09/08 11:50:56;;;;;;;5.25;4.75;;;26.10;99.90;;;;;;5115235;28;20218;-86
2022/09/08 11:54:03;;;;;;;4.28;3.70;;;26.00;99.90;;;;;;5115693;28;20203;-85
2022/09/08 11:57:24;;;;;;;4.25;3.95;;;25.80;99.90;;;;;;5111258;28;20192;-82
2022/09/08 12:00:13;;;;;;;4.88;3.97;;;25.60;99.90;;;;;;5116085;28;20199;-89
2022/09/08 12:03:11;;;;;;;4.63;4.20;;;25.50;99.90;;;;;;5101014;28;20216;-89
2022/09/08 12:05:55;;;;;;;9.57;4.13;;;25.30;99.90;;;;;;5087438;28;20210;-88
2022/09/08 12:09:00;;;;;;;4.10;3.80;;;25.20;99.90;;;;;;5115099;28;20206;-88
2022/09/08 12:11:53;;;;;;;3.25;2.95;;;24.90;99.90;;;;;;5114258;28;20220;-87
2022/09/08 12:14:36;;;;;;;4.18;3.78;;;24.60;99.90;;;;;;5095313;28;20201;-85
2022/09/08 12:17:26;;;;;;;5.43;3.95;;;24.40;99.90;;;;;;5095828;28;20288;-91
2022/09/08 12:20:57;;;;;;;5.28;3.92;;;24.10;99.90;;;;;;5088350;28;20204;-90
2022/09/08 12:23:45;;;;;;;3.72;3.42;;;24.00;99.90;;;;;;5094836;28;20257;-90
2022/09/08 12:26:34;;;;;;;4.82;3.75;;;23.80;99.90;;;;;;5108757;28;20199;-90
2022/09/08 12:29:30;;;;;;;3.85;3.55;;;23.70;99.90;;;;;;5114571;28;20203;-89
2022/09/08 12:32:47;;;;;;;4.25;3.85;;;23.60;99.90;;;;;;5071426;28;20220;-89
2022/09/08 12:35:23;;;;;;;3.00;2.80;;;23.50;99.90;;;;;;5111004;28;20192;-89
2022/09/08 12:39:02;;;;;;;3.60;3.33;;;23.20;99.90;;;;;;5115881;28;20224;-92
2022/09/08 12:42:25;;;;;;;3.80;3.50;;;22.90;99.90;;;;;;5052509;28;20245;-89
2022/09/08 12:45:06;;;;;;;4.57;3.70;;;22.60;99.90;;;;;;5056722;28;20236;-88
2022/09/08 12:47:51;;;;;;;3.70;3.30;;;22.40;99.90;;;;;;5094015;28;20200;-88
2022/09/08 12:50:34;;;;;;;2.97;2.78;;;22.10;99.90;;;;;;5107791;28;20214;-88
2022/09/08 12:53:23;;;;;;;3.50;3.20;;;21.70;99.90;;;;;;5114191;28;20262;-88
2022/09/08 12:55:56;;;;;;;4.80;2.95;;;21.40;99.90;;;;;;5114488;28;20200;-89
2022/09/08 12:58:36;;;;;;;2.75;2.55;;;21.00;99.90;;;;;;5113183;28;20239;-90
2022/09/08 13:01:20;;;;;;;2.85;2.70;;;20.60;99.90;;;;;;5113773;28;20228;-89
2022/09/08 13:07:22;;;;;;;2.63;2.50;;;20.20;99.90;;;;;;5113939;28;20283;-88
2022/09/08 13:10:07;;;;;;;3.38;3.08;;;20.00;99.90;;;;;;5114285;28;20216;-90
2022/09/08 13:13:01;;;;;;;3.10;2.80;;;19.90;99.90;;;;;;5113735;28;20259;-90
2022/09/08 13:15:35;;;;;;;3.50;3.25;;;19.70;99.90;;;;;;5114010;28;20211;-92
2022/09/08 13:18:21;;;;;;;2.65;2.45;;;19.50;99.90;;;;;;5113581;28;20207;-92
2022/09/08 13:20:56;;;;;;;3.33;3.03;;;19.30;99.90;;;;;;5113575;28;20210;-92
2022/09/08 13:23:42;;;;;;;2.83;2.58;;;19.30;99.90;;;;;;5113800;28;20279;-91
2022/09/08 13:26:35;;;;;;;2.78;2.40;;;19.20;99.90;;;;;;5113545;28;20203;-92
2022/09/08 13:29:36;;;;;;;2.95;2.75;;;19.30;99.90;;;;;;5113224;28;20203;-92
2022/09/08 13:32:42;;;;;;;3.83;2.13;;;19.30;99.90;;;;;;5094546;28;20234;-92
2022/09/08 13:35:30;;;;;;;4.53;2.60;;;19.40;99.90;;;;;;5113818;28;20223;-91
2022/09/08 13:38:39;;;;;;;2.58;2.38;;;19.50;99.90;;;;;;5113539;28;20207;-91
2022/09/08 13:41:20;;;;;;;1.92;1.83;;;19.50;99.90;;;;;;5113358;28;20220;-92
2022/09/08 13:44:18;;;;;;;2.15;1.95;;;19.40;99.90;;;;;;5114913;28;20199;-90
2022/09/08 13:47:10;;;;;;;2.00;1.80;;;19.20;99.90;;;;;;5113600;28;20215;-89
2022/09/08 13:50:03;;;;;;;2.20;2.00;;;19.10;99.90;;;;;;5113382;28;20257;-90
2022/09/08 13:52:47;;;;;;;2.13;2.03;;;19.10;99.90;;;;;;5113296;28;20227;-91
2022/09/08 13:55:47;;;;;;;2.20;1.45;;;19.10;99.90;;;;;;5113120;28;20211;-91
2022/09/08 13:58:34;;;;;;;2.00;1.80;;;19.00;99.90;;;;;;5113389;28;20276;-90
2022/09/08 14:01:09;;;;;;;4.30;2.30;;;19.00;99.90;;;;;;5113862;28;20208;-90
2022/09/08 14:03:44;;;;;;;2.90;2.05;;;19.00;99.90;;;;;;5114979;28;20208;-90
2022/09/08 14:06:16;;;;;;;2.08;1.95;;;18.90;99.90;;;;;;5114734;28;20203;-89
2022/09/08 14:08:52;;;;;;;1.60;1.50;;;18.90;99.90;;;;;;5115433;28;20199;-90
2022/09/08 14:11:38;;;;;;;1.80;1.70;;;18.80;99.90;;;;;;5120320;28;20222;-92
2022/09/08 14:14:39;;;;;;;1.33;1.30;;;18.70;99.90;;;;;;5116731;28;20216;-89
2022/09/08 14:17:22;;;;;;;2.38;1.75;;;18.60;99.90;;;;;;5117587;28;20297;-92
2022/09/08 14:20:03;;;;;;;1.65;1.55;;;18.60;99.90;;;;;;5117601;28;20340;-92
2022/09/08 14:22:48;;;;;;;2.35;2.00;;;18.70;99.90;;;;;;5118805;28;20230;-90
2022/09/08 14:25:19;;;;;;;1.88;1.77;;;18.70;99.90;;;;;;5118679;28;20209;-90
2022/09/08 14:28:09;;;;;;;1.67;1.58;;;18.80;99.90;;;;;;5118879;28;20203;-91
2022/09/08 14:30:52;;;;;;;3.05;1.60;;;18.90;99.90;;;;;;5118913;28;20206;-91
2022/09/08 14:33:29;;;;;;;1.50;1.40;;;19.10;99.90;;;;;;5118139;28;20220;-90
2022/09/08 14:36:02;;;;;;;1.45;1.35;;;19.40;99.90;;;;;;5119967;28;20290;-93
2022/09/08 14:38:48;;;;;;;1.08;1.08;;;19.60;99.90;;;;;;5118794;28;20284;-91
2022/09/08 14:41:37;;;;;;;1.42;1.33;;;19.80;99.90;;;;;;5117745;28;20223;-90
2022/09/08 14:44:53;;;;;;;1.40;1.30;;;20.10;99.90;;;;;;5118706;28;20195;-90